aviador You're here:

KS32 Decoded Metar

in
Report Time2018-04-27 02:55:00
UTC Time2018-04-27 03:05:18
Flight Rules vfr VFR
Wind200° at 10 kt
W.Rank200° ranks 17
Current wind is above 200° avg. (9.5)
Visibility9999 m
Phenomena:N/A
Clouds:Scattered 100 Hf
Expected CloudBase > 2,800 ft AGL from Temp-Dew spread
CeilingNone
Temp10°C
Dew Point03°C (62% RH)
AAT4.9°C
QNH1011 hPa
Raw Report
KS32 270255Z AUTO 20010KT 10SM SCT100 10/03 A2986 RMK AO2=

Extra information for KS32:More info

Social comments